MSC Jenny — CQDA — position and weather

sailwx.info

Track history (hours):
 
Tides and Currents Weather Stations Pressure Air Temp Water Temp Dewpoint Dewpoint Depression Visibility Wind Speed Wind Dir Waves Ship Positions

MSC Jenny

Last reported at 2018-Jul-17 03:16 UTC. Time now 2018-Jul-21 11:21 UTC.
Position N 37°13' W 011°46'.

; draft 10.5 m.

Type: Ship (hazmat cat A). MMSI: 255805777.

Date/timePositionNaut miles runAvg speedWind from/ knotsBaromVisibWave heightAir tempDewpointWater temp
2018-Jul-17 03:16N 37°13' W 011°46'3516.0
2018-Jul-17 01:06N 36°56' W 011°07'116.0
2018-Jul-17 01:00N 36°56' W 011°06'1215.8
2018-Jul-17 00:15N 36°50' W 010°53'5715.9
2018-Jul-16 20:40N 36°28' W 009°47'315.8
2018-Jul-16 20:30N 36°27' W 009°44'20415.8
2018-Jul-16 07:34N 35°58' W 005°34'112.8
2018-Jul-16 07:30N 35°58' W 005°33'713.4
2018-Jul-16 07:00N 35°60' W 005°25'713.1
2018-Jul-16 06:30N 36°02' W 005°18'612.8
2018-Jul-16 06:00N 36°03' W 005°10'713.2
2018-Jul-16 05:29N 36°04' W 005°01'30212.9
2018-Jul-15 06:05N 39°06' E 000°03'1316.5
2018-Jul-15 05:17N 39°17' W 000°07'516.8
2018-Jul-15 05:00N 39°20' W 000°10'714.7
2018-Jul-15 04:30N 39°25' W 000°17'2 3.8
2018-Jul-15 04:01N 39°26' W 000°20'0 0.0
2018-Jul-15 03:26N 39°26' W 000°20'0 0.0
2018-Jul-15 02:32N 39°26' W 000°20'0 0.0
2018-Jul-15 02:26N 39°26' W 000°20'0 0.0
2018-Jul-15 01:26N 39°26' W 000°20'0 0.0
2018-Jul-14 23:20N 39°26' W 000°20'0 0.0
2018-Jul-14 22:59N 39°26' W 000°20'0 0.0
2018-Jul-14 20:32N 39°26' W 000°20'0 0.0
2018-Jul-14 20:05N 39°26' W 000°20'0 0.0
2018-Jul-14 19:59N 39°26' W 000°20'0 0.0
2018-Jul-14 19:29N 39°26' W 000°20'0 0.0
2018-Jul-14 18:50N 39°26' W 000°20'0 0.0
2018-Jul-14 18:23N 39°26' W 000°20'0 0.0
2018-Jul-14 17:44N 39°26' W 000°20'0 0.0
2018-Jul-14 17:14N 39°26' W 000°20'0 0.0
2018-Jul-14 16:56N 39°26' W 000°20'0 0.0
2018-Jul-14 16:29N 39°26' W 000°20'0 0.0
2018-Jul-14 15:59N 39°26' W 000°20'0 0.0
2018-Jul-14 15:29N 39°26' W 000°20'0 0.0
2018-Jul-14 14:59N 39°26' W 000°20'0 0.0
2018-Jul-14 13:59N 39°26' W 000°20'0 0.0
2018-Jul-14 13:29N 39°26' W 000°20'0 0.0
2018-Jul-14 12:59N 39°26' W 000°20'0 0.0
2018-Jul-14 12:29N 39°26' W 000°20'0 0.0
2018-Jul-14 11:59N 39°26' W 000°20'0 0.1
2018-Jul-14 11:31N 39°26' W 000°19'3 6.4
2018-Jul-14 11:00N 39°25' W 000°16'610.7
2018-Jul-14 10:28N 39°27' W 000°09'12816.2
2018-Jul-14 02:34N 40°33' E 002°14'116.8
2018-Jul-14 02:30N 40°34' E 002°15'816.9
2018-Jul-14 02:00N 40°39' E 002°24'917.0
2018-Jul-14 01:30N 40°43' E 002°33'917.0
2018-Jul-14 01:00N 40°48' E 002°43'917.1
2018-Jul-14 00:30N 40°53' E 002°52'816.9
2018-Jul-14 00:00N 40°58' E 003°00'816.7
2018-Jul-13 23:30N 41°03' E 003°10'917.0
2018-Jul-13 22:59N 41°08' E 003°20'817.1
2018-Jul-13 22:30N 41°13' E 003°28'817.0
2018-Jul-13 22:00N 41°17' E 003°38'816.9
2018-Jul-13 21:30N 41°22' E 003°47'816.7
2018-Jul-13 21:00N 41°27' E 003°56'816.6
2018-Jul-13 20:30N 41°32' E 004°05'816.5
2018-Jul-13 20:00N 41°36' E 004°14'816.7
2018-Jul-13 19:30N 41°41' E 004°24'816.5
2018-Jul-13 19:00N 41°46' E 004°33'816.7
2018-Jul-13 18:30N 41°51' E 004°42'816.7
2018-Jul-13 18:00N 41°56' E 004°51'1116.7
2018-Jul-13 17:19N 42°02' E 005°04'516.9
2018-Jul-13 17:00N 42°05' E 005°09'816.8
2018-Jul-13 16:30N 42°10' E 005°19'816.7
2018-Jul-13 16:00N 42°15' E 005°28'816.5
2018-Jul-13 15:30N 42°19' E 005°37'816.5
2018-Jul-13 15:00N 42°24' E 005°47'816.5
2018-Jul-13 14:30N 42°28' E 005°56'1616.2
2018-Jul-13 13:30N 42°38' E 006°14'816.4
2018-Jul-13 13:00N 42°42' E 006°23'916.6
2018-Jul-13 12:27N 42°48' E 006°34'1917.0
2018-Jul-13 11:21N 42°58' E 006°54'916.7
2018-Jul-13 10:48N 43°04' E 007°04'516.6
2018-Jul-13 10:30N 43°07' E 007°10'816.6
2018-Jul-13 10:00N 43°12' E 007°18'916.6
2018-Jul-13 09:29N 43°18' E 007°28'1016.7
2018-Jul-13 08:52N 43°24' E 007°39'3117.1
2018-Jul-13 07:03N 43°44' E 008°12'117.6
2018-Jul-13 07:00N 43°45' E 008°13'917.6
2018-Jul-13 06:30N 43°52' E 008°20'917.6
2018-Jul-13 06:00N 43°59' E 008°27'917.3
2018-Jul-13 05:30N 44°06' E 008°33'917.3
2018-Jul-13 05:00N 44°14' E 008°37'816.8
2018-Jul-13 04:30N 44°22' E 008°43'4 8.1
2018-Jul-13 04:00N 44°25' E 008°46'1 1.8
2018-Jul-13 03:28N 44°25' E 008°47'0 0.0
2018-Jul-13 02:58N 44°25' E 008°47'0 0.0
2018-Jul-13 02:28N 44°25' E 008°47'0 0.0
2018-Jul-13 01:58N 44°25' E 008°47'0 0.0
2018-Jul-13 01:25N 44°25' E 008°47'0 0.0
2018-Jul-13 00:58N 44°25' E 008°47'0 0.0
2018-Jul-13 00:28N 44°25' E 008°47'0 0.0
2018-Jul-12 23:58N 44°25' E 008°47'0 0.0
2018-Jul-12 23:28N 44°25' E 008°47'0 0.0
2018-Jul-12 22:58N 44°25' E 008°47'0 0.0
2018-Jul-12 22:28N 44°25' E 008°47'0 0.0
2018-Jul-12 21:58N 44°25' E 008°47'0 0.0
2018-Jul-12 21:28N 44°25' E 008°47'0 0.0
2018-Jul-12 20:58N 44°25' E 008°47'0 0.0
2018-Jul-12 20:28N 44°25' E 008°47'0 0.0
2018-Jul-12 19:58N 44°25' E 008°47'0 0.0
2018-Jul-12 19:28N 44°25' E 008°47'0 0.0
2018-Jul-12 18:58N 44°25' E 008°47'0 0.0
2018-Jul-12 18:28N 44°25' E 008°47'0 0.0
2018-Jul-12 17:58N 44°25' E 008°47'0 0.0
2018-Jul-12 17:28N 44°25' E 008°47'0 0.0
2018-Jul-12 16:58N 44°25' E 008°47'0 0.0
2018-Jul-12 16:28N 44°25' E 008°47'0 0.0
2018-Jul-12 15:58N 44°25' E 008°47'0 0.0
2018-Jul-12 15:28N 44°25' E 008°47'0 0.0
2018-Jul-12 14:58N 44°25' E 008°47'0 0.0
2018-Jul-12 14:28N 44°25' E 008°47'0 0.3
2018-Jul-12 14:00N 44°25' E 008°47'2 4.3
2018-Jul-12 13:30N 44°24' E 008°45'510.9
2018-Jul-12 13:00N 44°19' E 008°47'917.6
2018-Jul-12 12:30N 44°13' E 008°56'917.4
2018-Jul-12 12:01N 44°07' E 009°05'917.4
2018-Jul-12 11:30N 44°01' E 009°14'917.4
2018-Jul-12 11:00N 43°55' E 009°23'917.1
2018-Jul-12 10:30N 43°50' E 009°31'816.8
2018-Jul-12 10:00N 43°44' E 009°40'816.3
2018-Jul-12 09:30N 43°39' E 009°48'816.1
2018-Jul-12 09:00N 43°33' E 009°57'816.1
2018-Jul-12 08:30N 43°31' E 010°07'714.0
2018-Jul-12 08:00N 43°32' E 010°17'2 4.6
2018-Jul-12 07:31N 43°34' E 010°18'0 0.5
2018-Jul-12 06:59N 43°35' E 010°18'0 0.0
2018-Jul-12 06:29N 43°35' E 010°18'0 0.0
2018-Jul-12 05:59N 43°35' E 010°18'0 0.0
2018-Jul-12 05:29N 43°35' E 010°18'0 0.0
2018-Jul-12 04:59N 43°35' E 010°18'0 0.0
2018-Jul-12 04:29N 43°35' E 010°18'0 0.0
2018-Jul-12 03:59N 43°35' E 010°18'0 0.0
2018-Jul-12 03:29N 43°35' E 010°18'0 0.0
2018-Jul-12 03:00N 43°35' E 010°18'0 0.0
2018-Jul-12 02:28N 43°35' E 010°18'0 0.0
2018-Jul-12 01:58N 43°35' E 010°18'0 0.0
2018-Jul-12 01:28N 43°35' E 010°18'0 0.0
2018-Jul-12 00:58N 43°35' E 010°18'0 0.0
2018-Jul-12 00:29N 43°35' E 010°18'0 0.0
2018-Jul-11 23:59N 43°35' E 010°18'0 0.7
2018-Jul-11 23:31N 43°34' E 010°18'3 5.6
2018-Jul-11 23:00N 43°32' E 010°16'4 8.3
2018-Jul-11 22:30N 43°29' E 010°12'1 2.3
2018-Jul-11 22:01N 43°28' E 010°12'1 1.5
2018-Jul-11 21:31N 43°27' E 010°11'1 1.1
2018-Jul-11 21:00N 43°27' E 010°10'0 0.7
2018-Jul-11 20:30N 43°27' E 010°11'0 1.0
2018-Jul-11 20:01N 43°28' E 010°10'3 5.1
2018-Jul-11 19:30N 43°26' E 010°08'3 5.3
2018-Jul-11 18:59N 43°24' E 010°05'613.6
2018-Jul-11 18:30N 43°19' E 009°59'815.5
2018-Jul-11 18:01N 43°14' E 009°52'815.7
2018-Jul-11 17:30N 43°08' E 009°44'815.0
2018-Jul-11 17:00N 43°01' E 009°40'715.1
2018-Jul-11 16:30N 42°54' E 009°42'815.4
2018-Jul-11 15:57N 42°46' E 009°46'715.7
2018-Jul-11 15:30N 42°39' E 009°49'3815.5
2018-Jul-11 13:02N 42°06' E 010°16'1016.7
2018-Jul-11 12:27N 41°60' E 010°26'716.4
2018-Jul-11 12:00N 41°55' E 010°33'1016.1
2018-Jul-11 11:23N 41°48' E 010°43'2016.3
2018-Jul-11 10:09N 41°35' E 011°03'216.2
2018-Jul-11 10:00N 41°33' E 011°05'816.2
2018-Jul-11 09:31N 41°28' E 011°13'4717.1
2018-Jul-11 06:44N 40°56' E 011°60'415.8
2018-Jul-11 06:30N 40°53' E 012°03'815.8
2018-Jul-11 06:01N 40°48' E 012°11'816.1
2018-Jul-11 05:30N 40°42' E 012°19'816.1
2018-Jul-11 05:00N 40°37' E 012°27'816.3
2018-Jul-11 04:30N 40°31' E 012°35'1316.3
2018-Jul-11 03:42N 40°23' E 012°48'316.4
2018-Jul-11 03:31N 40°21' E 012°51'1116.6
2018-Jul-11 02:52N 40°13' E 013°01'1216.9
2018-Jul-11 02:11N 40°06' E 013°12'316.9
2018-Jul-11 02:00N 40°04' E 013°15'916.9
2018-Jul-11 01:28N 39°57' E 013°24'817.0
2018-Jul-11 00:59N 39°52' E 013°32'816.6
2018-Jul-11 00:30N 39°47' E 013°39'816.3
2018-Jul-11 00:00N 39°41' E 013°47'816.4
2018-Jul-10 23:31N 39°36' E 013°55'1016.5
2018-Jul-10 22:55N 39°29' E 014°04'4216.4
2018-Jul-10 20:22N 39°01' E 014°44'2416.7
2018-Jul-10 18:55N 38°45' E 015°07'717.5
2018-Jul-10 18:30N 38°39' E 015°14'917.4
2018-Jul-10 17:59N 38°34' E 015°23'817.0
2018-Jul-10 17:30N 38°29' E 015°31'816.7
2018-Jul-10 17:00N 38°23' E 015°39'713.6
2018-Jul-10 16:28N 38°16' E 015°42'713.9
2018-Jul-10 15:59N 38°11' E 015°37'713.9
2018-Jul-10 15:30N 38°04' E 015°36'917.0
2018-Jul-10 15:00N 37°56' E 015°38'816.7
2018-Jul-10 14:30N 37°50' E 015°45'917.4
2018-Jul-10 14:00N 37°47' E 015°56'917.5
2018-Jul-10 13:30N 37°45' E 016°06'36314.6
2018-Jul-09 12:35N 37°17' E 023°43'416.5
2018-Jul-09 12:20N 37°21' E 023°45'616.9
2018-Jul-09 12:00N 37°26' E 023°45'816.4
2018-Jul-09 11:31N 37°35' E 023°44'816.6
2018-Jul-09 11:01N 37°42' E 023°41'816.6
2018-Jul-09 10:31N 37°50' E 023°35'4 7.0
2018-Jul-09 10:00N 37°52' E 023°32'0 0.0
2018-Jul-09 09:30N 37°52' E 023°32'0 0.0
2018-Jul-09 09:00N 37°52' E 023°32'0 0.0
2018-Jul-09 08:30N 37°52' E 023°32'0 0.0
2018-Jul-09 08:00N 37°52' E 023°32'0 0.2
2018-Jul-09 07:30N 37°52' E 023°32'0 0.0
2018-Jul-09 07:00N 37°52' E 023°32'0 0.1
2018-Jul-09 06:30N 37°52' E 023°32'0 0.0
2018-Jul-09 05:59N 37°52' E 023°32'0 0.0
2018-Jul-09 05:29N 37°52' E 023°32'0 0.1
2018-Jul-09 05:00N 37°52' E 023°32'2 3.9
2018-Jul-09 04:30N 37°53' E 023°34'4 8.1
2018-Jul-09 04:00N 37°56' E 023°36'1 2.4
2018-Jul-09 03:28N 37°57' E 023°35'0 0.0
2018-Jul-09 02:58N 37°57' E 023°35'0 0.0
2018-Jul-09 02:28N 37°57' E 023°35'0 0.0
2018-Jul-09 01:58N 37°57' E 023°35'0 0.0
2018-Jul-09 01:28N 37°57' E 023°35'0 0.0
2018-Jul-09 00:58N 37°57' E 023°35'0 0.0
2018-Jul-09 00:28N 37°57' E 023°35'0 0.0
2018-Jul-08 23:58N 37°57' E 023°35'0 0.0
2018-Jul-08 23:28N 37°57' E 023°35'0 0.0
2018-Jul-08 22:58N 37°57' E 023°35'0 0.0
2018-Jul-08 22:28N 37°57' E 023°35'0 0.0
2018-Jul-08 21:58N 37°57' E 023°35'0 0.0
2018-Jul-08 21:28N 37°57' E 023°35'0 0.0
2018-Jul-08 20:58N 37°57' E 023°35'0 0.0
2018-Jul-08 20:28N 37°57' E 023°35'0 0.0
2018-Jul-08 19:58N 37°57' E 023°35'0 0.0
2018-Jul-08 19:28N 37°57' E 023°35'0 0.0
2018-Jul-08 18:58N 37°57' E 023°35'0 0.0
2018-Jul-08 18:28N 37°57' E 023°35'0 0.0
2018-Jul-08 17:58N 37°57' E 023°35'0 0.0
2018-Jul-08 17:25N 37°57' E 023°35'0 0.0
2018-Jul-08 16:58N 37°57' E 023°35'0 0.0
2018-Jul-08 16:28N 37°57' E 023°35'0 0.0
2018-Jul-08 15:58N 37°57' E 023°35'0 0.0
2018-Jul-08 15:28N 37°57' E 023°35'0 0.0
2018-Jul-08 14:58N 37°57' E 023°35'0 0.0
2018-Jul-08 14:28N 37°57' E 023°35'0 0.0
2018-Jul-08 13:58N 37°57' E 023°35'0 0.0
2018-Jul-08 13:28N 37°57' E 023°35'0 0.0
2018-Jul-08 12:58N 37°57' E 023°35'0 0.0
2018-Jul-08 12:28N 37°57' E 023°35'0 0.0
2018-Jul-08 11:58N 37°57' E 023°35'0 0.0
2018-Jul-08 11:28N 37°57' E 023°35'0 0.0
2018-Jul-08 10:58N 37°57' E 023°35'0 0.0
2018-Jul-08 10:28N 37°57' E 023°35'0 0.0
2018-Jul-08 09:58N 37°57' E 023°35'0 0.0
2018-Jul-08 09:28N 37°57' E 023°35'0 0.0
2018-Jul-08 08:58N 37°57' E 023°35'0 0.4
2018-Jul-08 08:30N 37°57' E 023°35'2 4.2
2018-Jul-08 08:00N 37°55' E 023°35'1 1.8
2018-Jul-08 07:30N 37°54' E 023°35'0 0.3
2018-Jul-08 07:00N 37°54' E 023°35'0 0.5
2018-Jul-08 06:30N 37°54' E 023°35'2 4.9
2018-Jul-08 06:00N 37°52' E 023°32'2 3.8
2018-Jul-08 05:30N 37°51' E 023°30'0 0.0
2018-Jul-08 05:00N 37°51' E 023°30'0 0.0
2018-Jul-08 04:30N 37°51' E 023°30'0 0.0
2018-Jul-08 04:00N 37°51' E 023°30'0 0.0
2018-Jul-08 03:30N 37°51' E 023°30'0 0.0
2018-Jul-08 03:00N 37°51' E 023°30'0 0.0
2018-Jul-08 02:30N 37°51' E 023°30'0 0.0
2018-Jul-08 02:00N 37°51' E 023°30'0 0.0
2018-Jul-08 01:30N 37°51' E 023°30'0 0.0
2018-Jul-08 01:00N 37°51' E 023°30'0 0.0
2018-Jul-08 00:30N 37°51' E 023°30'0 0.0
2018-Jul-08 00:00N 37°51' E 023°30'0 0.0
2018-Jul-07 23:30N 37°51' E 023°30'0 0.0
2018-Jul-07 23:00N 37°51' E 023°30'0 0.0
2018-Jul-07 22:30N 37°51' E 023°30'0 0.0
2018-Jul-07 22:00N 37°51' E 023°30'0 0.0
2018-Jul-07 21:30N 37°51' E 023°30'0 0.0
2018-Jul-07 21:00N 37°51' E 023°30'0 0.0
2018-Jul-07 20:30N 37°51' E 023°30'0 0.0
2018-Jul-07 20:00N 37°51' E 023°30'0 0.0
2018-Jul-07 19:30N 37°51' E 023°30'0 0.0
2018-Jul-07 19:00N 37°51' E 023°30'0 0.0
2018-Jul-07 18:30N 37°51' E 023°30'0 0.1
2018-Jul-07 18:00N 37°51' E 023°30'0 0.6
2018-Jul-07 17:30N 37°51' E 023°31'4 7.3
2018-Jul-07 17:00N 37°52' E 023°35'3 5.4
2018-Jul-07 16:30N 37°51' E 023°39'612.4
2018-Jul-07 16:00N 37°45' E 023°42'714.7
2018-Jul-07 15:30N 37°39' E 023°46'714.5
2018-Jul-07 15:00N 37°32' E 023°49'714.3
2018-Jul-07 14:30N 37°25' E 023°52'714.3
2018-Jul-07 14:00N 37°18' E 023°54'714.2
2018-Jul-07 13:30N 37°11' E 023°57'1514.1
2018-Jul-07 12:24N 36°57' E 024°03'613.9
2018-Jul-07 11:58N 36°51' E 024°06'1713.9
2018-Jul-07 10:44N 36°35' E 024°14'314.2
2018-Jul-07 10:30N 36°33' E 024°18'  
Track history (hours):
 
Tides and Currents Weather Stations Pressure Air Temp Water Temp Dewpoint Dewpoint Depression Visibility Wind Speed Wind Dir Waves Ship Positions

MSC Jenny

Last reported at 2018-Jul-17 03:16 UTC. Time now 2018-Jul-21 11:21 UTC.
Position N 37°13' W 011°46'.

; draft 10.5 m.

Type: Ship (hazmat cat A). MMSI: 255805777.

Date/timePositionNaut miles runAvg speedWind from/ knotsBaromVisibWave heightAir tempDewpointWater temp
2018-Jul-17 03:16N 37°13' W 011°46'3516.0
2018-Jul-17 01:06N 36°56' W 011°07'116.0
2018-Jul-17 01:00N 36°56' W 011°06'1215.8
2018-Jul-17 00:15N 36°50' W 010°53'5715.9
2018-Jul-16 20:40N 36°28' W 009°47'315.8
2018-Jul-16 20:30N 36°27' W 009°44'20415.8
2018-Jul-16 07:34N 35°58' W 005°34'112.8
2018-Jul-16 07:30N 35°58' W 005°33'713.4
2018-Jul-16 07:00N 35°60' W 005°25'713.1
2018-Jul-16 06:30N 36°02' W 005°18'612.8
2018-Jul-16 06:00N 36°03' W 005°10'713.2
2018-Jul-16 05:29N 36°04' W 005°01'30212.9
2018-Jul-15 06:05N 39°06' E 000°03'1316.5
2018-Jul-15 05:17N 39°17' W 000°07'516.8
2018-Jul-15 05:00N 39°20' W 000°10'714.7
2018-Jul-15 04:30N 39°25' W 000°17'2 3.8
2018-Jul-15 04:01N 39°26' W 000°20'0 0.0
2018-Jul-15 03:26N 39°26' W 000°20'0 0.0
2018-Jul-15 02:32N 39°26' W 000°20'0 0.0
2018-Jul-15 02:26N 39°26' W 000°20'0 0.0
2018-Jul-15 01:26N 39°26' W 000°20'0 0.0
2018-Jul-14 23:20N 39°26' W 000°20'0 0.0
2018-Jul-14 22:59N 39°26' W 000°20'0 0.0
2018-Jul-14 20:32N 39°26' W 000°20'0 0.0
2018-Jul-14 20:05N 39°26' W 000°20'0 0.0
2018-Jul-14 19:59N 39°26' W 000°20'0 0.0
2018-Jul-14 19:29N 39°26' W 000°20'0 0.0
2018-Jul-14 18:50N 39°26' W 000°20'0 0.0
2018-Jul-14 18:23N 39°26' W 000°20'0 0.0
2018-Jul-14 17:44N 39°26' W 000°20'0 0.0
2018-Jul-14 17:14N 39°26' W 000°20'0 0.0
2018-Jul-14 16:56N 39°26' W 000°20'0 0.0
2018-Jul-14 16:29N 39°26' W 000°20'0 0.0
2018-Jul-14 15:59N 39°26' W 000°20'0 0.0
2018-Jul-14 15:29N 39°26' W 000°20'0 0.0
2018-Jul-14 14:59N 39°26' W 000°20'0 0.0
2018-Jul-14 13:59N 39°26' W 000°20'0 0.0
2018-Jul-14 13:29N 39°26' W 000°20'0 0.0
2018-Jul-14 12:59N 39°26' W 000°20'0 0.0
2018-Jul-14 12:29N 39°26' W 000°20'0 0.0
2018-Jul-14 11:59N 39°26' W 000°20'0 0.1
2018-Jul-14 11:31N 39°26' W 000°19'3 6.4
2018-Jul-14 11:00N 39°25' W 000°16'610.7
2018-Jul-14 10:28N 39°27' W 000°09'12816.2
2018-Jul-14 02:34N 40°33' E 002°14'116.8
2018-Jul-14 02:30N 40°34' E 002°15'816.9
2018-Jul-14 02:00N 40°39' E 002°24'917.0
2018-Jul-14 01:30N 40°43' E 002°33'917.0
2018-Jul-14 01:00N 40°48' E 002°43'917.1
2018-Jul-14 00:30N 40°53' E 002°52'816.9
2018-Jul-14 00:00N 40°58' E 003°00'816.7
2018-Jul-13 23:30N 41°03' E 003°10'917.0
2018-Jul-13 22:59N 41°08' E 003°20'817.1
2018-Jul-13 22:30N 41°13' E 003°28'817.0
2018-Jul-13 22:00N 41°17' E 003°38'816.9
2018-Jul-13 21:30N 41°22' E 003°47'816.7
2018-Jul-13 21:00N 41°27' E 003°56'816.6
2018-Jul-13 20:30N 41°32' E 004°05'816.5
2018-Jul-13 20:00N 41°36' E 004°14'816.7
2018-Jul-13 19:30N 41°41' E 004°24'816.5
2018-Jul-13 19:00N 41°46' E 004°33'816.7
2018-Jul-13 18:30N 41°51' E 004°42'816.7
2018-Jul-13 18:00N 41°56' E 004°51'1116.7
2018-Jul-13 17:19N 42°02' E 005°04'516.9
2018-Jul-13 17:00N 42°05' E 005°09'816.8
2018-Jul-13 16:30N 42°10' E 005°19'816.7
2018-Jul-13 16:00N 42°15' E 005°28'816.5
2018-Jul-13 15:30N 42°19' E 005°37'816.5
2018-Jul-13 15:00N 42°24' E 005°47'816.5
2018-Jul-13 14:30N 42°28' E 005°56'1616.2
2018-Jul-13 13:30N 42°38' E 006°14'816.4
2018-Jul-13 13:00N 42°42' E 006°23'916.6
2018-Jul-13 12:27N 42°48' E 006°34'1917.0
2018-Jul-13 11:21N 42°58' E 006°54'916.7
2018-Jul-13 10:48N 43°04' E 007°04'516.6
2018-Jul-13 10:30N 43°07' E 007°10'816.6
2018-Jul-13 10:00N 43°12' E 007°18'916.6
2018-Jul-13 09:29N 43°18' E 007°28'1016.7
2018-Jul-13 08:52N 43°24' E 007°39'3117.1
2018-Jul-13 07:03N 43°44' E 008°12'117.6
2018-Jul-13 07:00N 43°45' E 008°13'917.6
2018-Jul-13 06:30N 43°52' E 008°20'917.6
2018-Jul-13 06:00N 43°59' E 008°27'917.3
2018-Jul-13 05:30N 44°06' E 008°33'917.3
2018-Jul-13 05:00N 44°14' E 008°37'816.8
2018-Jul-13 04:30N 44°22' E 008°43'4 8.1
2018-Jul-13 04:00N 44°25' E 008°46'1 1.8
2018-Jul-13 03:28N 44°25' E 008°47'0 0.0
2018-Jul-13 02:58N 44°25' E 008°47'0 0.0
2018-Jul-13 02:28N 44°25' E 008°47'0 0.0
2018-Jul-13 01:58N 44°25' E 008°47'0 0.0
2018-Jul-13 01:25N 44°25' E 008°47'0 0.0
2018-Jul-13 00:58N 44°25' E 008°47'0 0.0
2018-Jul-13 00:28N 44°25' E 008°47'0 0.0
2018-Jul-12 23:58N 44°25' E 008°47'0 0.0
2018-Jul-12 23:28N 44°25' E 008°47'0 0.0
2018-Jul-12 22:58N 44°25' E 008°47'0 0.0
2018-Jul-12 22:28N 44°25' E 008°47'0 0.0
2018-Jul-12 21:58N 44°25' E 008°47'0 0.0
2018-Jul-12 21:28N 44°25' E 008°47'0 0.0
2018-Jul-12 20:58N 44°25' E 008°47'0 0.0
2018-Jul-12 20:28N 44°25' E 008°47'0 0.0
2018-Jul-12 19:58N 44°25' E 008°47'0 0.0
2018-Jul-12 19:28N 44°25' E 008°47'0 0.0
2018-Jul-12 18:58N 44°25' E 008°47'0 0.0
2018-Jul-12 18:28N 44°25' E 008°47'0 0.0
2018-Jul-12 17:58N 44°25' E 008°47'0 0.0
2018-Jul-12 17:28N 44°25' E 008°47'0 0.0
2018-Jul-12 16:58N 44°25' E 008°47'0 0.0
2018-Jul-12 16:28N 44°25' E 008°47'0 0.0
2018-Jul-12 15:58N 44°25' E 008°47'0 0.0
2018-Jul-12 15:28N 44°25' E 008°47'0 0.0
2018-Jul-12 14:58N 44°25' E 008°47'0 0.0
2018-Jul-12 14:28N 44°25' E 008°47'0 0.3
2018-Jul-12 14:00N 44°25' E 008°47'2 4.3
2018-Jul-12 13:30N 44°24' E 008°45'510.9
2018-Jul-12 13:00N 44°19' E 008°47'917.6
2018-Jul-12 12:30N 44°13' E 008°56'917.4
2018-Jul-12 12:01N 44°07' E 009°05'917.4
2018-Jul-12 11:30N 44°01' E 009°14'917.4
2018-Jul-12 11:00N 43°55' E 009°23'917.1
2018-Jul-12 10:30N 43°50' E 009°31'816.8
2018-Jul-12 10:00N 43°44' E 009°40'816.3
2018-Jul-12 09:30N 43°39' E 009°48'816.1
2018-Jul-12 09:00N 43°33' E 009°57'816.1
2018-Jul-12 08:30N 43°31' E 010°07'714.0
2018-Jul-12 08:00N 43°32' E 010°17'2 4.6
2018-Jul-12 07:31N 43°34' E 010°18'0 0.5
2018-Jul-12 06:59N 43°35' E 010°18'0 0.0
2018-Jul-12 06:29N 43°35' E 010°18'0 0.0
2018-Jul-12 05:59N 43°35' E 010°18'0 0.0
2018-Jul-12 05:29N 43°35' E 010°18'0 0.0
2018-Jul-12 04:59N 43°35' E 010°18'0 0.0
2018-Jul-12 04:29N 43°35' E 010°18'0 0.0
2018-Jul-12 03:59N 43°35' E 010°18'0 0.0
2018-Jul-12 03:29N 43°35' E 010°18'0 0.0
2018-Jul-12 03:00N 43°35' E 010°18'0 0.0
2018-Jul-12 02:28N 43°35' E 010°18'0 0.0
2018-Jul-12 01:58N 43°35' E 010°18'0 0.0
2018-Jul-12 01:28N 43°35' E 010°18'0 0.0
2018-Jul-12 00:58N 43°35' E 010°18'0 0.0
2018-Jul-12 00:29N 43°35' E 010°18'0 0.0
2018-Jul-11 23:59N 43°35' E 010°18'0 0.7
2018-Jul-11 23:31N 43°34' E 010°18'3 5.6
2018-Jul-11 23:00N 43°32' E 010°16'4 8.3
2018-Jul-11 22:30N 43°29' E 010°12'1 2.3
2018-Jul-11 22:01N 43°28' E 010°12'1 1.5
2018-Jul-11 21:31N 43°27' E 010°11'1 1.1
2018-Jul-11 21:00N 43°27' E 010°10'0 0.7
2018-Jul-11 20:30N 43°27' E 010°11'0 1.0
2018-Jul-11 20:01N 43°28' E 010°10'3 5.1
2018-Jul-11 19:30N 43°26' E 010°08'3 5.3
2018-Jul-11 18:59N 43°24' E 010°05'613.6
2018-Jul-11 18:30N 43°19' E 009°59'815.5
2018-Jul-11 18:01N 43°14' E 009°52'815.7
2018-Jul-11 17:30N 43°08' E 009°44'815.0
2018-Jul-11 17:00N 43°01' E 009°40'715.1
2018-Jul-11 16:30N 42°54' E 009°42'815.4
2018-Jul-11 15:57N 42°46' E 009°46'715.7
2018-Jul-11 15:30N 42°39' E 009°49'3815.5
2018-Jul-11 13:02N 42°06' E 010°16'1016.7
2018-Jul-11 12:27N 41°60' E 010°26'716.4
2018-Jul-11 12:00N 41°55' E 010°33'1016.1
2018-Jul-11 11:23N 41°48' E 010°43'2016.3
2018-Jul-11 10:09N 41°35' E 011°03'216.2
2018-Jul-11 10:00N 41°33' E 011°05'816.2
2018-Jul-11 09:31N 41°28' E 011°13'4717.1
2018-Jul-11 06:44N 40°56' E 011°60'415.8
2018-Jul-11 06:30N 40°53' E 012°03'815.8
2018-Jul-11 06:01N 40°48' E 012°11'816.1
2018-Jul-11 05:30N 40°42' E 012°19'816.1
2018-Jul-11 05:00N 40°37' E 012°27'816.3
2018-Jul-11 04:30N 40°31' E 012°35'1316.3
2018-Jul-11 03:42N 40°23' E 012°48'316.4
2018-Jul-11 03:31N 40°21' E 012°51'1116.6
2018-Jul-11 02:52N 40°13' E 013°01'1216.9
2018-Jul-11 02:11N 40°06' E 013°12'316.9
2018-Jul-11 02:00N 40°04' E 013°15'916.9
2018-Jul-11 01:28N 39°57' E 013°24'817.0
2018-Jul-11 00:59N 39°52' E 013°32'816.6
2018-Jul-11 00:30N 39°47' E 013°39'816.3
2018-Jul-11 00:00N 39°41' E 013°47'816.4
2018-Jul-10 23:31N 39°36' E 013°55'1016.5
2018-Jul-10 22:55N 39°29' E 014°04'4216.4
2018-Jul-10 20:22N 39°01' E 014°44'2416.7
2018-Jul-10 18:55N 38°45' E 015°07'717.5
2018-Jul-10 18:30N 38°39' E 015°14'917.4
2018-Jul-10 17:59N 38°34' E 015°23'817.0
2018-Jul-10 17:30N 38°29' E 015°31'816.7
2018-Jul-10 17:00N 38°23' E 015°39'713.6
2018-Jul-10 16:28N 38°16' E 015°42'713.9
2018-Jul-10 15:59N 38°11' E 015°37'713.9
2018-Jul-10 15:30N 38°04' E 015°36'917.0
2018-Jul-10 15:00N 37°56' E 015°38'816.7
2018-Jul-10 14:30N 37°50' E 015°45'917.4
2018-Jul-10 14:00N 37°47' E 015°56'917.5
2018-Jul-10 13:30N 37°45' E 016°06'36314.6
2018-Jul-09 12:35N 37°17' E 023°43'416.5
2018-Jul-09 12:20N 37°21' E 023°45'616.9
2018-Jul-09 12:00N 37°26' E 023°45'816.4
2018-Jul-09 11:31N 37°35' E 023°44'816.6
2018-Jul-09 11:01N 37°42' E 023°41'816.6
2018-Jul-09 10:31N 37°50' E 023°35'4 7.0
2018-Jul-09 10:00N 37°52' E 023°32'0 0.0
2018-Jul-09 09:30N 37°52' E 023°32'0 0.0
2018-Jul-09 09:00N 37°52' E 023°32'0 0.0
2018-Jul-09 08:30N 37°52' E 023°32'0 0.0
2018-Jul-09 08:00N 37°52' E 023°32'0 0.2
2018-Jul-09 07:30N 37°52' E 023°32'0 0.0
2018-Jul-09 07:00N 37°52' E 023°32'0 0.1
2018-Jul-09 06:30N 37°52' E 023°32'0 0.0
2018-Jul-09 05:59N 37°52' E 023°32'0 0.0
2018-Jul-09 05:29N 37°52' E 023°32'0 0.1
2018-Jul-09 05:00N 37°52' E 023°32'2 3.9
2018-Jul-09 04:30N 37°53' E 023°34'4 8.1
2018-Jul-09 04:00N 37°56' E 023°36'1 2.4
2018-Jul-09 03:28N 37°57' E 023°35'0 0.0
2018-Jul-09 02:58N 37°57' E 023°35'0 0.0
2018-Jul-09 02:28N 37°57' E 023°35'0 0.0
2018-Jul-09 01:58N 37°57' E 023°35'0 0.0
2018-Jul-09 01:28N 37°57' E 023°35'0 0.0
2018-Jul-09 00:58N 37°57' E 023°35'0 0.0
2018-Jul-09 00:28N 37°57' E 023°35'0 0.0
2018-Jul-08 23:58N 37°57' E 023°35'0 0.0
2018-Jul-08 23:28N 37°57' E 023°35'0 0.0
2018-Jul-08 22:58N 37°57' E 023°35'0 0.0
2018-Jul-08 22:28N 37°57' E 023°35'0 0.0
2018-Jul-08 21:58N 37°57' E 023°35'0 0.0
2018-Jul-08 21:28N 37°57' E 023°35'0 0.0
2018-Jul-08 20:58N 37°57' E 023°35'0 0.0
2018-Jul-08 20:28N 37°57' E 023°35'0 0.0
2018-Jul-08 19:58N 37°57' E 023°35'0 0.0
2018-Jul-08 19:28N 37°57' E 023°35'0 0.0
2018-Jul-08 18:58N 37°57' E 023°35'0 0.0
2018-Jul-08 18:28N 37°57' E 023°35'0 0.0
2018-Jul-08 17:58N 37°57' E 023°35'0 0.0
2018-Jul-08 17:25N 37°57' E 023°35'0 0.0
2018-Jul-08 16:58N 37°57' E 023°35'0 0.0
2018-Jul-08 16:28N 37°57' E 023°35'0 0.0
2018-Jul-08 15:58N 37°57' E 023°35'0 0.0
2018-Jul-08 15:28N 37°57' E 023°35'0 0.0
2018-Jul-08 14:58N 37°57' E 023°35'0 0.0
2018-Jul-08 14:28N 37°57' E 023°35'0 0.0
2018-Jul-08 13:58N 37°57' E 023°35'0 0.0
2018-Jul-08 13:28N 37°57' E 023°35'0 0.0
2018-Jul-08 12:58N 37°57' E 023°35'0 0.0
2018-Jul-08 12:28N 37°57' E 023°35'0 0.0
2018-Jul-08 11:58N 37°57' E 023°35'0 0.0
2018-Jul-08 11:28N 37°57' E 023°35'0 0.0
2018-Jul-08 10:58N 37°57' E 023°35'0 0.0
2018-Jul-08 10:28N 37°57' E 023°35'0 0.0
2018-Jul-08 09:58N 37°57' E 023°35'0 0.0
2018-Jul-08 09:28N 37°57' E 023°35'0 0.0
2018-Jul-08 08:58N 37°57' E 023°35'0 0.4
2018-Jul-08 08:30N 37°57' E 023°35'2 4.2
2018-Jul-08 08:00N 37°55' E 023°35'1 1.8
2018-Jul-08 07:30N 37°54' E 023°35'0 0.3
2018-Jul-08 07:00N 37°54' E 023°35'0 0.5
2018-Jul-08 06:30N 37°54' E 023°35'2 4.9
2018-Jul-08 06:00N 37°52' E 023°32'2 3.8
2018-Jul-08 05:30N 37°51' E 023°30'0 0.0
2018-Jul-08 05:00N 37°51' E 023°30'0 0.0
2018-Jul-08 04:30N 37°51' E 023°30'0 0.0
2018-Jul-08 04:00N 37°51' E 023°30'0 0.0
2018-Jul-08 03:30N 37°51' E 023°30'0 0.0
2018-Jul-08 03:00N 37°51' E 023°30'0 0.0
2018-Jul-08 02:30N 37°51' E 023°30'0 0.0
2018-Jul-08 02:00N 37°51' E 023°30'0 0.0
2018-Jul-08 01:30N 37°51' E 023°30'0 0.0
2018-Jul-08 01:00N 37°51' E 023°30'0 0.0
2018-Jul-08 00:30N 37°51' E 023°30'0 0.0
2018-Jul-08 00:00N 37°51' E 023°30'0 0.0
2018-Jul-07 23:30N 37°51' E 023°30'0 0.0
2018-Jul-07 23:00N 37°51' E 023°30'0 0.0
2018-Jul-07 22:30N 37°51' E 023°30'0 0.0
2018-Jul-07 22:00N 37°51' E 023°30'0 0.0
2018-Jul-07 21:30N 37°51' E 023°30'0 0.0
2018-Jul-07 21:00N 37°51' E 023°30'0 0.0
2018-Jul-07 20:30N 37°51' E 023°30'0 0.0
2018-Jul-07 20:00N 37°51' E 023°30'0 0.0
2018-Jul-07 19:30N 37°51' E 023°30'0 0.0
2018-Jul-07 19:00N 37°51' E 023°30'0 0.0
2018-Jul-07 18:30N 37°51' E 023°30'0 0.1
2018-Jul-07 18:00N 37°51' E 023°30'0 0.6
2018-Jul-07 17:30N 37°51' E 023°31'4 7.3
2018-Jul-07 17:00N 37°52' E 023°35'3 5.4
2018-Jul-07 16:30N 37°51' E 023°39'612.4
2018-Jul-07 16:00N 37°45' E 023°42'714.7
2018-Jul-07 15:30N 37°39' E 023°46'714.5
2018-Jul-07 15:00N 37°32' E 023°49'714.3
2018-Jul-07 14:30N 37°25' E 023°52'714.3
2018-Jul-07 14:00N 37°18' E 023°54'714.2
2018-Jul-07 13:30N 37°11' E 023°57'1514.1
2018-Jul-07 12:24N 36°57' E 024°03'613.9
2018-Jul-07 11:58N 36°51' E 024°06'1713.9
2018-Jul-07 10:44N 36°35' E 024°14'314.2
2018-Jul-07 10:30N 36°33' E 024°18'  

Dump ship's entire track history